sensor_id;sensor_type;location;lat;lon;timestamp;P1;durP1;ratioP1;P2;durP2;ratioP2
66256;SDS011;53049;43.446;3.698;2023-04-24T00:01:14;4.80;;;3.00;;
66256;SDS011;53049;43.446;3.698;2023-04-24T00:03:42;6.03;;;3.10;;
66256;SDS011;53049;43.446;3.698;2023-04-24T00:06:08;4.68;;;2.88;;
66256;SDS011;53049;43.446;3.698;2023-04-24T00:08:34;5.65;;;3.30;;
66256;SDS011;53049;43.446;3.698;2023-04-24T00:11:01;4.38;;;2.83;;
66256;SDS011;53049;43.446;3.698;2023-04-24T00:13:27;5.13;;;2.90;;
66256;SDS011;53049;43.446;3.698;2023-04-24T00:15:54;6.20;;;3.40;;
66256;SDS011;53049;43.446;3.698;2023-04-24T00:18:20;5.22;;;2.70;;
66256;SDS011;53049;43.446;3.698;2023-04-24T00:20:46;3.55;;;2.72;;
66256;SDS011;53049;43.446;3.698;2023-04-24T00:23:12;4.70;;;2.70;;
66256;SDS011;53049;43.446;3.698;2023-04-24T00:25:38;2.75;;;2.20;;
66256;SDS011;53049;43.446;3.698;2023-04-24T00:28:05;5.82;;;2.65;;
66256;SDS011;53049;43.446;3.698;2023-04-24T00:30:31;4.18;;;2.45;;
66256;SDS011;53049;43.446;3.698;2023-04-24T00:32:57;3.60;;;2.20;;
66256;SDS011;53049;43.446;3.698;2023-04-24T00:35:23;2.83;;;2.15;;
66256;SDS011;53049;43.446;3.698;2023-04-24T00:37:49;3.22;;;2.08;;
66256;SDS011;53049;43.446;3.698;2023-04-24T00:40:15;5.25;;;2.13;;
66256;SDS011;53049;43.446;3.698;2023-04-24T00:42:41;2.80;;;1.80;;
66256;SDS011;53049;43.446;3.698;2023-04-24T00:45:09;3.40;;;1.90;;
66256;SDS011;53049;43.446;3.698;2023-04-24T00:47:35;4.32;;;1.92;;
66256;SDS011;53049;43.446;3.698;2023-04-24T00:50:02;2.50;;;1.70;;
66256;SDS011;53049;43.446;3.698;2023-04-24T00:52:29;3.97;;;1.80;;
66256;SDS011;53049;43.446;3.698;2023-04-24T00:54:57;3.67;;;1.90;;
66256;SDS011;53049;43.446;3.698;2023-04-24T00:57:23;5.03;;;2.47;;
66256;SDS011;53049;43.446;3.698;2023-04-24T00:59:49;5.00;;;2.10;;
66256;SDS011;53049;43.446;3.698;2023-04-24T01:02:16;3.05;;;1.75;;
66256;SDS011;53049;43.446;3.698;2023-04-24T01:04:43;4.25;;;1.80;;
66256;SDS011;53049;43.446;3.698;2023-04-24T01:07:09;3.83;;;1.75;;
66256;SDS011;53049;43.446;3.698;2023-04-24T01:09:42;6.00;;;1.83;;
66256;SDS011;53049;43.446;3.698;2023-04-24T01:12:12;3.75;;;1.77;;
66256;SDS011;53049;43.446;3.698;2023-04-24T01:14:38;5.88;;;2.20;;
66256;SDS011;53049;43.446;3.698;2023-04-24T01:17:04;3.05;;;1.77;;
66256;SDS011;53049;43.446;3.698;2023-04-24T01:19:30;3.95;;;2.00;;
66256;SDS011;53049;43.446;3.698;2023-04-24T01:21:58;6.55;;;2.20;;
66256;SDS011;53049;43.446;3.698;2023-04-24T01:24:24;6.10;;;1.80;;
66256;SDS011;53049;43.446;3.698;2023-04-24T01:26:50;4.35;;;1.85;;
66256;SDS011;53049;43.446;3.698;2023-04-24T01:29:16;5.15;;;1.92;;
66256;SDS011;53049;43.446;3.698;2023-04-24T01:31:43;5.85;;;2.28;;
66256;SDS011;53049;43.446;3.698;2023-04-24T01:34:09;5.70;;;1.88;;
66256;SDS011;53049;43.446;3.698;2023-04-24T01:36:35;4.80;;;2.13;;
66256;SDS011;53049;43.446;3.698;2023-04-24T01:39:02;8.10;;;2.47;;
66256;SDS011;53049;43.446;3.698;2023-04-24T01:41:29;4.57;;;1.90;;
66256;SDS011;53049;43.446;3.698;2023-04-24T01:43:55;4.70;;;2.10;;
66256;SDS011;53049;43.446;3.698;2023-04-24T01:46:21;4.05;;;1.80;;
66256;SDS011;53049;43.446;3.698;2023-04-24T01:48:48;6.18;;;2.22;;
66256;SDS011;53049;43.446;3.698;2023-04-24T01:51:14;7.72;;;2.05;;
66256;SDS011;53049;43.446;3.698;2023-04-24T01:53:40;4.35;;;1.85;;
66256;SDS011;53049;43.446;3.698;2023-04-24T01:56:06;3.90;;;1.83;;
66256;SDS011;53049;43.446;3.698;2023-04-24T01:58:32;4.95;;;2.20;;
66256;SDS011;53049;43.446;3.698;2023-04-24T02:00:59;6.70;;;2.00;;
66256;SDS011;53049;43.446;3.698;2023-04-24T02:03:26;4.45;;;1.85;;
66256;SDS011;53049;43.446;3.698;2023-04-24T02:05:52;5.35;;;2.00;;
66256;SDS011;53049;43.446;3.698;2023-04-24T02:08:18;4.93;;;1.60;;
66256;SDS011;53049;43.446;3.698;2023-04-24T02:10:44;7.38;;;1.80;;
66256;SDS011;53049;43.446;3.698;2023-04-24T02:13:10;4.80;;;1.85;;
66256;SDS011;53049;43.446;3.698;2023-04-24T02:15:36;7.32;;;1.83;;
66256;SDS011;53049;43.446;3.698;2023-04-24T02:18:02;5.50;;;2.08;;
66256;SDS011;53049;43.446;3.698;2023-04-24T02:20:28;3.88;;;1.85;;
66256;SDS011;53049;43.446;3.698;2023-04-24T02:22:54;4.43;;;2.15;;
66256;SDS011;53049;43.446;3.698;2023-04-24T02:25:21;7.15;;;2.00;;
66256;SDS011;53049;43.446;3.698;2023-04-24T02:27:47;6.18;;;2.30;;
66256;SDS011;53049;43.446;3.698;2023-04-24T02:30:13;5.45;;;2.08;;
66256;SDS011;53049;43.446;3.698;2023-04-24T02:32:39;6.20;;;1.95;;
66256;SDS011;53049;43.446;3.698;2023-04-24T02:35:05;5.18;;;1.80;;
66256;SDS011;53049;43.446;3.698;2023-04-24T02:37:32;5.55;;;1.83;;
66256;SDS011;53049;43.446;3.698;2023-04-24T02:39:58;4.68;;;2.22;;
66256;SDS011;53049;43.446;3.698;2023-04-24T02:42:24;4.95;;;1.90;;
66256;SDS011;53049;43.446;3.698;2023-04-24T02:44:50;5.75;;;1.90;;
66256;SDS011;53049;43.446;3.698;2023-04-24T02:47:16;5.53;;;2.10;;
66256;SDS011;53049;43.446;3.698;2023-04-24T02:49:42;4.32;;;2.10;;
66256;SDS011;53049;43.446;3.698;2023-04-24T02:52:08;5.95;;;2.28;;
66256;SDS011;53049;43.446;3.698;2023-04-24T02:54:35;5.80;;;2.25;;
66256;SDS011;53049;43.446;3.698;2023-04-24T02:57:01;7.43;;;1.90;;
66256;SDS011;53049;43.446;3.698;2023-04-24T02:59:27;4.57;;;1.98;;
66256;SDS011;53049;43.446;3.698;2023-04-24T03:01:54;5.80;;;2.10;;
66256;SDS011;53049;43.446;3.698;2023-04-24T03:04:20;5.68;;;2.20;;
66256;SDS011;53049;43.446;3.698;2023-04-24T03:06:46;6.85;;;2.35;;
66256;SDS011;53049;43.446;3.698;2023-04-24T03:09:12;7.45;;;2.10;;
66256;SDS011;53049;43.446;3.698;2023-04-24T03:11:39;6.63;;;2.20;;
66256;SDS011;53049;43.446;3.698;2023-04-24T03:14:05;8.23;;;1.98;;
66256;SDS011;53049;43.446;3.698;2023-04-24T03:16:31;6.25;;;1.90;;
66256;SDS011;53049;43.446;3.698;2023-04-24T03:18:57;5.43;;;2.42;;
66256;SDS011;53049;43.446;3.698;2023-04-24T03:21:24;9.52;;;2.42;;
66256;SDS011;53049;43.446;3.698;2023-04-24T03:23:50;6.68;;;2.10;;
66256;SDS011;53049;43.446;3.698;2023-04-24T03:26:16;7.03;;;2.38;;
66256;SDS011;53049;43.446;3.698;2023-04-24T03:28:42;5.45;;;2.05;;
66256;SDS011;53049;43.446;3.698;2023-04-24T03:31:09;6.82;;;2.13;;
66256;SDS011;53049;43.446;3.698;2023-04-24T03:33:35;6.00;;;2.40;;
66256;SDS011;53049;43.446;3.698;2023-04-24T03:36:01;6.78;;;2.30;;
66256;SDS011;53049;43.446;3.698;2023-04-24T03:38:27;6.25;;;2.22;;
66256;SDS011;53049;43.446;3.698;2023-04-24T03:40:53;7.15;;;2.47;;
66256;SDS011;53049;43.446;3.698;2023-04-24T03:43:19;9.18;;;2.20;;
66256;SDS011;53049;43.446;3.698;2023-04-24T03:45:45;9.30;;;2.58;;
66256;SDS011;53049;43.446;3.698;2023-04-24T03:48:11;7.60;;;2.50;;
66256;SDS011;53049;43.446;3.698;2023-04-24T03:50:37;7.90;;;2.25;;
66256;SDS011;53049;43.446;3.698;2023-04-24T03:53:04;7.20;;;2.40;;
66256;SDS011;53049;43.446;3.698;2023-04-24T03:55:30;5.75;;;2.33;;
66256;SDS011;53049;43.446;3.698;2023-04-24T03:57:56;6.72;;;2.40;;
66256;SDS011;53049;43.446;3.698;2023-04-24T04:00:22;9.27;;;2.25;;
66256;SDS011;53049;43.446;3.698;2023-04-24T04:02:48;5.43;;;2.08;;
66256;SDS011;53049;43.446;3.698;2023-04-24T04:05:14;9.35;;;2.85;;
66256;SDS011;53049;43.446;3.698;2023-04-24T04:07:40;7.25;;;2.83;;
66256;SDS011;53049;43.446;3.698;2023-04-24T04:10:06;8.35;;;2.80;;
66256;SDS011;53049;43.446;3.698;2023-04-24T04:12:32;8.85;;;2.67;;
66256;SDS011;53049;43.446;3.698;2023-04-24T04:14:59;5.95;;;2.60;;
66256;SDS011;53049;43.446;3.698;2023-04-24T04:17:25;6.28;;;2.40;;
66256;SDS011;53049;43.446;3.698;2023-04-24T04:19:51;6.97;;;2.40;;
66256;SDS011;53049;43.446;3.698;2023-04-24T04:22:17;9.25;;;2.40;;
66256;SDS011;53049;43.446;3.698;2023-04-24T04:24:43;6.05;;;2.40;;
66256;SDS011;53049;43.446;3.698;2023-04-24T04:27:09;8.32;;;2.45;;
66256;SDS011;53049;43.446;3.698;2023-04-24T04:29:36;5.95;;;2.33;;
66256;SDS011;53049;43.446;3.698;2023-04-24T04:32:02;5.07;;;2.40;;
66256;SDS011;53049;43.446;3.698;2023-04-24T04:34:28;8.35;;;2.55;;
66256;SDS011;53049;43.446;3.698;2023-04-24T04:36:54;7.05;;;2.55;;
66256;SDS011;53049;43.446;3.698;2023-04-24T04:39:20;7.00;;;2.40;;
66256;SDS011;53049;43.446;3.698;2023-04-24T04:41:47;5.90;;;2.60;;
66256;SDS011;53049;43.446;3.698;2023-04-24T04:44:13;6.88;;;2.70;;
66256;SDS011;53049;43.446;3.698;2023-04-24T04:46:40;5.78;;;2.20;;
66256;SDS011;53049;43.446;3.698;2023-04-24T04:49:06;7.30;;;2.50;;
66256;SDS011;53049;43.446;3.698;2023-04-24T04:51:33;7.03;;;2.17;;
66256;SDS011;53049;43.446;3.698;2023-04-24T04:53:59;7.70;;;2.67;;
66256;SDS011;53049;43.446;3.698;2023-04-24T04:56:26;8.68;;;2.40;;
66256;SDS011;53049;43.446;3.698;2023-04-24T04:58:52;8.23;;;2.60;;
66256;SDS011;53049;43.446;3.698;2023-04-24T05:01:18;9.25;;;2.67;;
66256;SDS011;53049;43.446;3.698;2023-04-24T05:03:44;5.82;;;2.40;;
66256;SDS011;53049;43.446;3.698;2023-04-24T05:06:10;7.40;;;2.90;;
66256;SDS011;53049;43.446;3.698;2023-04-24T05:08:36;8.10;;;2.38;;
66256;SDS011;53049;43.446;3.698;2023-04-24T05:11:02;7.15;;;2.80;;
66256;SDS011;53049;43.446;3.698;2023-04-24T05:13:28;7.97;;;3.15;;
66256;SDS011;53049;43.446;3.698;2023-04-24T05:15:54;8.13;;;2.95;;
66256;SDS011;53049;43.446;3.698;2023-04-24T05:18:20;8.25;;;4.20;;
66256;SDS011;53049;43.446;3.698;2023-04-24T05:20:46;13.88;;;4.15;;
66256;SDS011;53049;43.446;3.698;2023-04-24T05:23:13;11.05;;;3.33;;
66256;SDS011;53049;43.446;3.698;2023-04-24T05:25:39;8.82;;;3.10;;
66256;SDS011;53049;43.446;3.698;2023-04-24T05:28:06;7.75;;;3.45;;
66256;SDS011;53049;43.446;3.698;2023-04-24T05:30:32;7.70;;;2.90;;
66256;SDS011;53049;43.446;3.698;2023-04-24T05:32:58;5.88;;;2.67;;
66256;SDS011;53049;43.446;3.698;2023-04-24T05:35:24;6.35;;;2.95;;
66256;SDS011;53049;43.446;3.698;2023-04-24T05:37:50;8.15;;;2.95;;
66256;SDS011;53049;43.446;3.698;2023-04-24T05:40:16;5.28;;;2.50;;
66256;SDS011;53049;43.446;3.698;2023-04-24T05:42:43;7.90;;;3.42;;
66256;SDS011;53049;43.446;3.698;2023-04-24T05:45:09;14.43;;;4.05;;
66256;SDS011;53049;43.446;3.698;2023-04-24T05:47:39;8.50;;;3.45;;
66256;SDS011;53049;43.446;3.698;2023-04-24T05:50:05;7.90;;;3.20;;
66256;SDS011;53049;43.446;3.698;2023-04-24T05:52:32;6.68;;;3.05;;
66256;SDS011;53049;43.446;3.698;2023-04-24T05:54:58;7.53;;;2.88;;
66256;SDS011;53049;43.446;3.698;2023-04-24T05:57:24;9.77;;;3.15;;
66256;SDS011;53049;43.446;3.698;2023-04-24T05:59:50;7.18;;;3.20;;
66256;SDS011;53049;43.446;3.698;2023-04-24T06:02:16;8.05;;;2.75;;
66256;SDS011;53049;43.446;3.698;2023-04-24T06:04:42;6.43;;;2.47;;
66256;SDS011;53049;43.446;3.698;2023-04-24T06:07:10;7.20;;;2.40;;
66256;SDS011;53049;43.446;3.698;2023-04-24T06:09:36;8.15;;;2.50;;
66256;SDS011;53049;43.446;3.698;2023-04-24T06:12:02;5.38;;;2.28;;
66256;SDS011;53049;43.446;3.698;2023-04-24T06:14:29;5.65;;;2.58;;
66256;SDS011;53049;43.446;3.698;2023-04-24T06:16:55;9.02;;;2.53;;
66256;SDS011;53049;43.446;3.698;2023-04-24T06:19:21;5.10;;;2.20;;
66256;SDS011;53049;43.446;3.698;2023-04-24T06:21:47;7.03;;;2.60;;
66256;SDS011;53049;43.446;3.698;2023-04-24T06:24:16;9.50;;;2.80;;
66256;SDS011;53049;43.446;3.698;2023-04-24T06:26:42;9.55;;;3.28;;
66256;SDS011;53049;43.446;3.698;2023-04-24T06:29:08;7.90;;;3.38;;
66256;SDS011;53049;43.446;3.698;2023-04-24T06:31:34;12.05;;;3.30;;
66256;SDS011;53049;43.446;3.698;2023-04-24T06:34:02;9.15;;;3.20;;
66256;SDS011;53049;43.446;3.698;2023-04-24T06:36:28;9.55;;;3.03;;
66256;SDS011;53049;43.446;3.698;2023-04-24T06:38:56;11.48;;;2.97;;
66256;SDS011;53049;43.446;3.698;2023-04-24T06:41:22;6.75;;;2.72;;
66256;SDS011;53049;43.446;3.698;2023-04-24T06:43:48;8.27;;;2.72;;
66256;SDS011;53049;43.446;3.698;2023-04-24T06:46:14;7.50;;;2.45;;
66256;SDS011;53049;43.446;3.698;2023-04-24T06:48:40;8.32;;;2.55;;
66256;SDS011;53049;43.446;3.698;2023-04-24T06:51:07;6.55;;;2.63;;
66256;SDS011;53049;43.446;3.698;2023-04-24T06:53:33;6.47;;;2.80;;
66256;SDS011;53049;43.446;3.698;2023-04-24T06:55:59;8.68;;;2.33;;
66256;SDS011;53049;43.446;3.698;2023-04-24T06:58:25;8.93;;;2.92;;
66256;SDS011;53049;43.446;3.698;2023-04-24T07:00:51;6.68;;;2.42;;
66256;SDS011;53049;43.446;3.698;2023-04-24T07:03:17;10.15;;;2.83;;
66256;SDS011;53049;43.446;3.698;2023-04-24T07:05:43;7.22;;;2.47;;
66256;SDS011;53049;43.446;3.698;2023-04-24T07:08:11;7.45;;;2.28;;
66256;SDS011;53049;43.446;3.698;2023-04-24T07:10:37;5.43;;;2.50;;
66256;SDS011;53049;43.446;3.698;2023-04-24T07:13:03;6.95;;;2.47;;
66256;SDS011;53049;43.446;3.698;2023-04-24T07:15:29;6.75;;;2.28;;
66256;SDS011;53049;43.446;3.698;2023-04-24T07:17:57;9.18;;;2.95;;
66256;SDS011;53049;43.446;3.698;2023-04-24T07:20:23;5.93;;;2.30;;
66256;SDS011;53049;43.446;3.698;2023-04-24T07:22:49;6.10;;;2.03;;
66256;SDS011;53049;43.446;3.698;2023-04-24T07:25:16;5.57;;;2.15;;
66256;SDS011;53049;43.446;3.698;2023-04-24T07:27:42;6.88;;;2.20;;
66256;SDS011;53049;43.446;3.698;2023-04-24T07:30:09;6.10;;;2.08;;
66256;SDS011;53049;43.446;3.698;2023-04-24T07:32:35;7.93;;;2.42;;
66256;SDS011;53049;43.446;3.698;2023-04-24T07:35:01;4.88;;;2.10;;
66256;SDS011;53049;43.446;3.698;2023-04-24T07:37:27;7.20;;;2.40;;
66256;SDS011;53049;43.446;3.698;2023-04-24T07:39:54;3.97;;;1.80;;
66256;SDS011;53049;43.446;3.698;2023-04-24T07:42:20;5.85;;;1.90;;
66256;SDS011;53049;43.446;3.698;2023-04-24T07:44:46;4.28;;;1.90;;
66256;SDS011;53049;43.446;3.698;2023-04-24T07:47:13;5.13;;;1.90;;
66256;SDS011;53049;43.446;3.698;2023-04-24T07:49:42;5.80;;;1.80;;
66256;SDS011;53049;43.446;3.698;2023-04-24T07:52:08;6.90;;;2.72;;
66256;SDS011;53049;43.446;3.698;2023-04-24T07:54:34;4.32;;;2.03;;
66256;SDS011;53049;43.446;3.698;2023-04-24T07:57:02;4.40;;;1.77;;
66256;SDS011;53049;43.446;3.698;2023-04-24T07:59:28;4.60;;;1.92;;
66256;SDS011;53049;43.446;3.698;2023-04-24T08:01:54;5.05;;;2.00;;
66256;SDS011;53049;43.446;3.698;2023-04-24T08:04:20;4.43;;;1.67;;
66256;SDS011;53049;43.446;3.698;2023-04-24T08:06:49;5.00;;;1.95;;
66256;SDS011;53049;43.446;3.698;2023-04-24T08:09:15;5.85;;;1.80;;
66256;SDS011;53049;43.446;3.698;2023-04-24T08:11:41;4.82;;;2.10;;
66256;SDS011;53049;43.446;3.698;2023-04-24T08:14:07;4.28;;;1.80;;
66256;SDS011;53049;43.446;3.698;2023-04-24T08:16:34;5.68;;;2.00;;
66256;SDS011;53049;43.446;3.698;2023-04-24T08:19:00;4.43;;;1.88;;
66256;SDS011;53049;43.446;3.698;2023-04-24T08:21:26;6.38;;;2.00;;
66256;SDS011;53049;43.446;3.698;2023-04-24T08:23:52;5.25;;;2.20;;
66256;SDS011;53049;43.446;3.698;2023-04-24T08:26:19;7.22;;;2.58;;
66256;SDS011;53049;43.446;3.698;2023-04-24T08:28:45;5.00;;;2.17;;
66256;SDS011;53049;43.446;3.698;2023-04-24T08:31:11;3.83;;;2.00;;
66256;SDS011;53049;43.446;3.698;2023-04-24T08:33:37;4.38;;;2.17;;
66256;SDS011;53049;43.446;3.698;2023-04-24T08:36:03;3.88;;;2.03;;
66256;SDS011;53049;43.446;3.698;2023-04-24T08:38:29;5.10;;;2.28;;
66256;SDS011;53049;43.446;3.698;2023-04-24T08:40:57;6.70;;;2.35;;
66256;SDS011;53049;43.446;3.698;2023-04-24T08:43:24;6.80;;;2.30;;
66256;SDS011;53049;43.446;3.698;2023-04-24T08:45:51;4.53;;;2.00;;
66256;SDS011;53049;43.446;3.698;2023-04-24T08:48:18;8.63;;;2.60;;
66256;SDS011;53049;43.446;3.698;2023-04-24T08:50:44;5.43;;;2.25;;
66256;SDS011;53049;43.446;3.698;2023-04-24T08:53:10;4.93;;;2.10;;
66256;SDS011;53049;43.446;3.698;2023-04-24T08:55:37;5.55;;;2.08;;
66256;SDS011;53049;43.446;3.698;2023-04-24T08:58:03;6.32;;;1.67;;
66256;SDS011;53049;43.446;3.698;2023-04-24T09:00:30;8.13;;;1.90;;
66256;SDS011;53049;43.446;3.698;2023-04-24T09:02:56;4.68;;;2.00;;
66256;SDS011;53049;43.446;3.698;2023-04-24T09:05:22;4.82;;;1.58;;
66256;SDS011;53049;43.446;3.698;2023-04-24T09:07:54;3.13;;;1.30;;
66256;SDS011;53049;43.446;3.698;2023-04-24T09:10:21;3.60;;;1.30;;
66256;SDS011;53049;43.446;3.698;2023-04-24T09:12:48;1.45;;;1.10;;
66256;SDS011;53049;43.446;3.698;2023-04-24T09:15:15;2.15;;;1.33;;
66256;SDS011;53049;43.446;3.698;2023-04-24T09:17:41;2.63;;;1.15;;
66256;SDS011;53049;43.446;3.698;2023-04-24T09:20:08;1.55;;;1.13;;
66256;SDS011;53049;43.446;3.698;2023-04-24T09:22:34;1.45;;;1.10;;
66256;SDS011;53049;43.446;3.698;2023-04-24T09:25:04;2.95;;;1.05;;
66256;SDS011;53049;43.446;3.698;2023-04-24T09:27:31;2.03;;;1.13;;
66256;SDS011;53049;43.446;3.698;2023-04-24T09:29:57;1.00;;;1.00;;
66256;SDS011;53049;43.446;3.698;2023-04-24T09:32:24;3.25;;;1.10;;
66256;SDS011;53049;43.446;3.698;2023-04-24T09:35:04;2.67;;;1.30;;
66256;SDS011;53049;43.446;3.698;2023-04-24T09:37:34;1.42;;;1.00;;
66256;SDS011;53049;43.446;3.698;2023-04-24T09:40:07;1.25;;;1.00;;
66256;SDS011;53049;43.446;3.698;2023-04-24T09:42:33;2.13;;;1.13;;
66256;SDS011;53049;43.446;3.698;2023-04-24T09:45:00;2.08;;;1.10;;
66256;SDS011;53049;43.446;3.698;2023-04-24T09:47:26;3.97;;;1.42;;
66256;SDS011;53049;43.446;3.698;2023-04-24T09:49:53;3.65;;;1.10;;
66256;SDS011;53049;43.446;3.698;2023-04-24T09:52:23;1.98;;;1.10;;
66256;SDS011;53049;43.446;3.698;2023-04-24T09:54:53;1.17;;;1.00;;
66256;SDS011;53049;43.446;3.698;2023-04-24T09:57:19;6.47;;;1.20;;
66256;SDS011;53049;43.446;3.698;2023-04-24T09:59:45;3.80;;;1.13;;
66256;SDS011;53049;43.446;3.698;2023-04-24T10:02:18;2.80;;;1.00;;
66256;SDS011;53049;43.446;3.698;2023-04-24T10:04:54;3.90;;;1.10;;
66256;SDS011;53049;43.446;3.698;2023-04-24T10:07:21;1.40;;;1.00;;
66256;SDS011;53049;43.446;3.698;2023-04-24T10:09:47;3.38;;;1.15;;
66256;SDS011;53049;43.446;3.698;2023-04-24T10:12:13;2.60;;;1.27;;
66256;SDS011;53049;43.446;3.698;2023-04-24T10:14:40;2.85;;;0.90;;
66256;SDS011;53049;43.446;3.698;2023-04-24T10:17:06;1.50;;;0.90;;
66256;SDS011;53049;43.446;3.698;2023-04-24T10:19:33;2.47;;;1.20;;
66256;SDS011;53049;43.446;3.698;2023-04-24T10:22:00;2.70;;;1.00;;
66256;SDS011;53049;43.446;3.698;2023-04-24T10:24:27;5.80;;;1.63;;
66256;SDS011;53049;43.446;3.698;2023-04-24T10:26:54;2.45;;;1.30;;
66256;SDS011;53049;43.446;3.698;2023-04-24T10:29:21;4.72;;;1.10;;
66256;SDS011;53049;43.446;3.698;2023-04-24T10:31:48;2.97;;;1.20;;
66256;SDS011;53049;43.446;3.698;2023-04-24T10:34:14;2.20;;;1.00;;
66256;SDS011;53049;43.446;3.698;2023-04-24T10:36:50;2.05;;;1.33;;
66256;SDS011;53049;43.446;3.698;2023-04-24T10:39:17;1.80;;;1.10;;
66256;SDS011;53049;43.446;3.698;2023-04-24T10:41:44;1.77;;;1.00;;
66256;SDS011;53049;43.446;3.698;2023-04-24T10:44:14;4.03;;;1.23;;
66256;SDS011;53049;43.446;3.698;2023-04-24T10:46:44;3.03;;;1.30;;
66256;SDS011;53049;43.446;3.698;2023-04-24T10:49:10;2.15;;;1.05;;
66256;SDS011;53049;43.446;3.698;2023-04-24T10:51:52;7.65;;;3.83;;
66256;SDS011;53049;43.446;3.698;2023-04-24T10:59:48;2.45;;;2.00;;
66256;SDS011;53049;43.446;3.698;2023-04-24T11:02:15;3.15;;;1.20;;
66256;SDS011;53049;43.446;3.698;2023-04-24T11:04:41;3.97;;;2.05;;
66256;SDS011;53049;43.446;3.698;2023-04-24T11:07:11;4.00;;;2.08;;
66256;SDS011;53049;43.446;3.698;2023-04-24T11:09:37;4.35;;;2.30;;
66256;SDS011;53049;43.446;3.698;2023-04-24T11:12:06;3.38;;;1.77;;
66256;SDS011;53049;43.446;3.698;2023-04-24T11:15:16;6.22;;;1.45;;
66256;SDS011;53049;43.446;3.698;2023-04-24T11:17:31;2.67;;;1.45;;
66256;SDS011;53049;43.446;3.698;2023-04-24T11:20:05;2.97;;;1.35;;
66256;SDS011;53049;43.446;3.698;2023-04-24T11:22:38;1.85;;;1.08;;
66256;SDS011;53049;43.446;3.698;2023-04-24T11:25:05;1.90;;;1.10;;
66256;SDS011;53049;43.446;3.698;2023-04-24T11:27:41;1.42;;;1.08;;
66256;SDS011;53049;43.446;3.698;2023-04-24T11:30:08;3.53;;;1.20;;
66256;SDS011;53049;43.446;3.698;2023-04-24T11:32:35;2.08;;;1.10;;
66256;SDS011;53049;43.446;3.698;2023-04-24T11:35:03;3.97;;;1.10;;
66256;SDS011;53049;43.446;3.698;2023-04-24T11:37:39;0.90;;;0.88;;
66256;SDS011;53049;43.446;3.698;2023-04-24T11:42:35;1.23;;;0.90;;
66256;SDS011;53049;43.446;3.698;2023-04-24T11:45:01;1.77;;;1.13;;
66256;SDS011;53049;43.446;3.698;2023-04-24T11:47:31;3.17;;;1.20;;
66256;SDS011;53049;43.446;3.698;2023-04-24T11:49:58;2.83;;;0.90;;
66256;SDS011;53049;43.446;3.698;2023-04-24T11:52:25;1.00;;;0.90;;
66256;SDS011;53049;43.446;3.698;2023-04-24T11:54:51;4.78;;;1.00;;
66256;SDS011;53049;43.446;3.698;2023-04-24T11:57:21;3.45;;;1.40;;
66256;SDS011;53049;43.446;3.698;2023-04-24T11:59:47;2.70;;;1.20;;
66256;SDS011;53049;43.446;3.698;2023-04-24T12:02:20;1.52;;;1.10;;
66256;SDS011;53049;43.446;3.698;2023-04-24T12:04:46;1.75;;;0.90;;
66256;SDS011;53049;43.446;3.698;2023-04-24T12:07:12;4.43;;;1.30;;
66256;SDS011;53049;43.446;3.698;2023-04-24T12:12:12;3.00;;;1.30;;
66256;SDS011;53049;43.446;3.698;2023-04-24T12:14:42;3.38;;;1.02;;
66256;SDS011;53049;43.446;3.698;2023-04-24T12:17:08;1.58;;;0.90;;
66256;SDS011;53049;43.446;3.698;2023-04-24T12:19:34;2.72;;;1.25;;
66256;SDS011;53049;43.446;3.698;2023-04-24T12:22:01;2.13;;;1.40;;
66256;SDS011;53049;43.446;3.698;2023-04-24T12:24:27;2.20;;;1.02;;
66256;SDS011;53049;43.446;3.698;2023-04-24T12:26:54;2.28;;;1.10;;
66256;SDS011;53049;43.446;3.698;2023-04-24T12:29:20;1.52;;;1.10;;
66256;SDS011;53049;43.446;3.698;2023-04-24T12:31:46;1.58;;;1.10;;
66256;SDS011;53049;43.446;3.698;2023-04-24T12:34:19;2.55;;;1.30;;
66256;SDS011;53049;43.446;3.698;2023-04-24T12:36:46;2.60;;;1.23;;
66256;SDS011;53049;43.446;3.698;2023-04-24T12:39:18;2.55;;;1.30;;
66256;SDS011;53049;43.446;3.698;2023-04-24T12:41:54;5.05;;;1.50;;
66256;SDS011;53049;43.446;3.698;2023-04-24T12:44:33;1.75;;;1.02;;
66256;SDS011;53049;43.446;3.698;2023-04-24T12:47:01;2.22;;;1.08;;
66256;SDS011;53049;43.446;3.698;2023-04-24T12:49:28;1.48;;;1.00;;
66256;SDS011;53049;43.446;3.698;2023-04-24T12:51:54;3.95;;;1.13;;
66256;SDS011;53049;43.446;3.698;2023-04-24T12:54:20;1.80;;;0.98;;
66256;SDS011;53049;43.446;3.698;2023-04-24T12:56:46;2.13;;;1.20;;
66256;SDS011;53049;43.446;3.698;2023-04-24T12:59:12;1.65;;;1.10;;
66256;SDS011;53049;43.446;3.698;2023-04-24T13:01:38;2.58;;;1.23;;
66256;SDS011;53049;43.446;3.698;2023-04-24T13:04:05;2.33;;;1.25;;
66256;SDS011;53049;43.446;3.698;2023-04-24T13:06:31;3.67;;;1.20;;
66256;SDS011;53049;43.446;3.698;2023-04-24T13:08:57;4.38;;;1.27;;
66256;SDS011;53049;43.446;3.698;2023-04-24T13:11:24;3.30;;;1.10;;
66256;SDS011;53049;43.446;3.698;2023-04-24T13:13:50;1.92;;;1.20;;
66256;SDS011;53049;43.446;3.698;2023-04-24T13:16:16;2.17;;;1.48;;
66256;SDS011;53049;43.446;3.698;2023-04-24T13:18:42;2.33;;;1.13;;
66256;SDS011;53049;43.446;3.698;2023-04-24T13:21:08;4.13;;;1.17;;
66256;SDS011;53049;43.446;3.698;2023-04-24T13:23:34;5.80;;;1.63;;
66256;SDS011;53049;43.446;3.698;2023-04-24T13:26:00;3.78;;;1.30;;
66256;SDS011;53049;43.446;3.698;2023-04-24T13:28:27;5.28;;;1.42;;
66256;SDS011;53049;43.446;3.698;2023-04-24T13:30:54;3.95;;;1.35;;
66256;SDS011;53049;43.446;3.698;2023-04-24T13:33:20;2.70;;;1.23;;
66256;SDS011;53049;43.446;3.698;2023-04-24T13:35:46;2.35;;;1.30;;
66256;SDS011;53049;43.446;3.698;2023-04-24T13:38:12;1.83;;;1.13;;
66256;SDS011;53049;43.446;3.698;2023-04-24T13:40:38;2.38;;;1.40;;
66256;SDS011;53049;43.446;3.698;2023-04-24T13:43:05;4.45;;;1.30;;
66256;SDS011;53049;43.446;3.698;2023-04-24T13:45:31;2.08;;;1.42;;
66256;SDS011;53049;43.446;3.698;2023-04-24T13:47:57;1.33;;;1.10;;
66256;SDS011;53049;43.446;3.698;2023-04-24T13:50:23;4.28;;;1.58;;
66256;SDS011;53049;43.446;3.698;2023-04-24T13:52:49;4.18;;;1.50;;
66256;SDS011;53049;43.446;3.698;2023-04-24T13:55:15;3.28;;;1.75;;
66256;SDS011;53049;43.446;3.698;2023-04-24T13:57:41;4.57;;;1.80;;
66256;SDS011;53049;43.446;3.698;2023-04-24T14:00:07;2.65;;;1.20;;
66256;SDS011;53049;43.446;3.698;2023-04-24T14:02:35;2.83;;;1.35;;
66256;SDS011;53049;43.446;3.698;2023-04-24T14:05:01;3.17;;;1.45;;
66256;SDS011;53049;43.446;3.698;2023-04-24T14:07:28;3.40;;;1.73;;
66256;SDS011;53049;43.446;3.698;2023-04-24T14:09:55;4.05;;;1.40;;
66256;SDS011;53049;43.446;3.698;2023-04-24T14:12:21;2.20;;;1.33;;
66256;SDS011;53049;43.446;3.698;2023-04-24T14:14:47;2.65;;;1.40;;
66256;SDS011;53049;43.446;3.698;2023-04-24T14:17:14;3.95;;;1.50;;
66256;SDS011;53049;43.446;3.698;2023-04-24T14:19:40;3.30;;;1.35;;
66256;SDS011;53049;43.446;3.698;2023-04-24T14:22:06;6.82;;;1.65;;
66256;SDS011;53049;43.446;3.698;2023-04-24T14:24:32;2.63;;;1.30;;
66256;SDS011;53049;43.446;3.698;2023-04-24T14:26:58;4.80;;;1.50;;
66256;SDS011;53049;43.446;3.698;2023-04-24T14:29:25;4.00;;;1.88;;
66256;SDS011;53049;43.446;3.698;2023-04-24T14:31:51;3.78;;;1.40;;
66256;SDS011;53049;43.446;3.698;2023-04-24T14:34:17;3.60;;;1.48;;
66256;SDS011;53049;43.446;3.698;2023-04-24T14:36:44;2.42;;;1.42;;
66256;SDS011;53049;43.446;3.698;2023-04-24T14:39:10;5.45;;;1.50;;
66256;SDS011;53049;43.446;3.698;2023-04-24T14:41:37;3.72;;;1.30;;
66256;SDS011;53049;43.446;3.698;2023-04-24T14:44:04;4.03;;;1.58;;
66256;SDS011;53049;43.446;3.698;2023-04-24T14:46:30;3.95;;;1.58;;
66256;SDS011;53049;43.446;3.698;2023-04-24T14:48:57;3.75;;;1.60;;
66256;SDS011;53049;43.446;3.698;2023-04-24T14:51:23;4.32;;;1.60;;
66256;SDS011;53049;43.446;3.698;2023-04-24T14:53:50;6.50;;;1.50;;
66256;SDS011;53049;43.446;3.698;2023-04-24T14:56:16;3.25;;;1.17;;